XBJCS MPTO-MHRO
Flight info
| Callsign | XBJCS |
|---|---|
| Flight time | N/A |
| Altitude | 18000 |
| Route | EGETA V11 TBG/N0486F430 UM419 AROVI/N0481F450 UM419 ANSON/N0486F430 UM206 BTO |
| Aircraft | C750/M-SBDE3FGHRWXY/S |
Departure
| Time | 2026-04-28 02:58 |
|---|---|
| Airport | Tocumen International Airport (MPTO) |
Arrival
| Time | N/A |
|---|---|
| Airport | Juan Manuel Gálvez International Airport (MHRO) |
| Time | Latitude | Longitude | Altitude | Speed | Heading |
|---|---|---|---|---|---|
| 2026-04-28 02:20 | 9.07780 | -79.38093 | 27 ft | 0 kts | 211° |
| 2026-04-28 02:37 | 9.07779 | -79.38094 | 27 ft | 1 kts | 214° |
| 2026-04-28 02:37 | 9.07776 | -79.38097 | 27 ft | 1 kts | 227° |
| 2026-04-28 02:37 | 9.07776 | -79.38103 | 27 ft | 1 kts | 277° |
| 2026-04-28 02:37 | 9.07787 | -79.38113 | 28 ft | 3 kts | 335° |
| 2026-04-28 02:38 | 9.07814 | -79.38108 | 28 ft | 5 kts | 11° |
| 2026-04-28 02:38 | 9.07846 | -79.38131 | 28 ft | 7 kts | 306° |
| 2026-04-28 02:38 | 9.07868 | -79.38171 | 29 ft | 7 kts | 301° |
| 2026-04-28 02:38 | 9.07910 | -79.38177 | 31 ft | 7 kts | 28° |
| 2026-04-28 02:39 | 9.07966 | -79.38146 | 31 ft | 11 kts | 31° |
| 2026-04-28 02:39 | 9.08043 | -79.38100 | 31 ft | 15 kts | 29° |
| 2026-04-28 02:39 | 9.08141 | -79.38038 | 30 ft | 18 kts | 32° |
| 2026-04-28 02:39 | 9.08229 | -79.37959 | 30 ft | 16 kts | 46° |
| 2026-04-28 02:40 | 9.08296 | -79.37893 | 29 ft | 13 kts | 44° |
| 2026-04-28 02:40 | 9.08359 | -79.37829 | 28 ft | 13 kts | 45° |
| 2026-04-28 02:40 | 9.08419 | -79.37766 | 28 ft | 12 kts | 46° |
| 2026-04-28 02:40 | 9.08478 | -79.37709 | 28 ft | 11 kts | 44° |
| 2026-04-28 02:41 | 9.08535 | -79.37661 | 28 ft | 10 kts | 32° |
| 2026-04-28 02:41 | 9.08592 | -79.37627 | 28 ft | 9 kts | 28° |
| 2026-04-28 02:41 | 9.08644 | -79.37599 | 28 ft | 8 kts | 29° |
| 2026-04-28 02:41 | 9.08691 | -79.37572 | 28 ft | 7 kts | 29° |
| 2026-04-28 02:42 | 9.08730 | -79.37546 | 28 ft | 6 kts | 36° |
| 2026-04-28 02:42 | 9.08762 | -79.37523 | 28 ft | 4 kts | 26° |
| 2026-04-28 02:42 | 9.08792 | -79.37508 | 28 ft | 7 kts | 27° |
| 2026-04-28 02:42 | 9.08844 | -79.37476 | 28 ft | 11 kts | 32° |
| 2026-04-28 02:43 | 9.08914 | -79.37440 | 27 ft | 8 kts | 20° |
| 2026-04-28 02:43 | 9.08916 | -79.37439 | 27 ft | 0 kts | 20° |
| 2026-04-28 02:46 | 9.08923 | -79.37433 | 27 ft | 3 kts | 43° |
| 2026-04-28 02:47 | 9.08928 | -79.37418 | 27 ft | 2 kts | 66° |
| 2026-04-28 02:47 | 9.08942 | -79.37418 | 27 ft | 1 kts | 323° |
| 2026-04-28 02:47 | 9.08941 | -79.37424 | 27 ft | 1 kts | 261° |
| 2026-04-28 02:47 | 9.08933 | -79.37432 | 27 ft | 3 kts | 212° |
| 2026-04-28 02:48 | 9.08904 | -79.37443 | 27 ft | 6 kts | 200° |
| 2026-04-28 02:48 | 9.08857 | -79.37468 | 27 ft | 9 kts | 210° |
| 2026-04-28 02:48 | 9.08794 | -79.37506 | 28 ft | 12 kts | 211° |
| 2026-04-28 02:48 | 9.08734 | -79.37542 | 28 ft | 9 kts | 211° |
| 2026-04-28 02:49 | 9.08684 | -79.37572 | 28 ft | 8 kts | 209° |
| 2026-04-28 02:49 | 9.08637 | -79.37599 | 28 ft | 7 kts | 210° |
| 2026-04-28 02:49 | 9.08596 | -79.37623 | 28 ft | 6 kts | 212° |
| 2026-04-28 02:49 | 9.08561 | -79.37647 | 28 ft | 6 kts | 213° |
| 2026-04-28 02:50 | 9.08525 | -79.37670 | 28 ft | 7 kts | 212° |
| 2026-04-28 02:50 | 9.08480 | -79.37704 | 28 ft | 9 kts | 225° |
| 2026-04-28 02:50 | 9.08431 | -79.37756 | 28 ft | 11 kts | 226° |
| 2026-04-28 02:50 | 9.08372 | -79.37818 | 28 ft | 13 kts | 226° |
| 2026-04-28 02:51 | 9.08303 | -79.37881 | 29 ft | 14 kts | 224° |
| 2026-04-28 02:51 | 9.08239 | -79.37956 | 30 ft | 14 kts | 226° |
| 2026-04-28 02:51 | 9.08164 | -79.38022 | 30 ft | 14 kts | 216° |
| 2026-04-28 02:51 | 9.08077 | -79.38076 | 30 ft | 15 kts | 209° |
| 2026-04-28 02:52 | 9.07986 | -79.38134 | 31 ft | 16 kts | 211° |
| 2026-04-28 02:52 | 9.07889 | -79.38192 | 31 ft | 17 kts | 208° |
| 2026-04-28 02:52 | 9.07784 | -79.38253 | 31 ft | 18 kts | 211° |
| 2026-04-28 02:52 | 9.07675 | -79.38321 | 31 ft | 19 kts | 212° |
| 2026-04-28 02:53 | 9.07562 | -79.38392 | 31 ft | 20 kts | 211° |
| 2026-04-28 02:53 | 9.07443 | -79.38466 | 31 ft | 20 kts | 211° |
| 2026-04-28 02:53 | 9.07337 | -79.38545 | 32 ft | 10 kts | 273° |
| 2026-04-28 02:53 | 9.07353 | -79.38585 | 37 ft | 2 kts | 297° |
| 2026-04-28 02:54 | 9.07354 | -79.38587 | 37 ft | 0 kts | 297° |
| 2026-04-28 02:57 | 9.07358 | -79.38594 | 38 ft | 4 kts | 298° |
| 2026-04-28 02:57 | 9.07387 | -79.38636 | 44 ft | 12 kts | 316° |
| 2026-04-28 02:57 | 9.07506 | -79.38600 | 45 ft | 34 kts | 32° |
| 2026-04-28 02:58 | 9.07970 | -79.38319 | 44 ft | 122 kts | 31° |
| 2026-04-28 02:58 | 9.08827 | -79.37819 | 349 ft | 137 kts | 30° |
| 2026-04-28 02:58 | 9.09637 | -79.37343 | 988 ft | 139 kts | 30° |
| 2026-04-28 02:58 | 9.10636 | -79.37067 | 1248 ft | 167 kts | 2° |
| 2026-04-28 02:59 | 9.11902 | -79.37338 | 1539 ft | 205 kts | 333° |
| 2026-04-28 02:59 | 9.12989 | -79.38397 | 1825 ft | 242 kts | 299° |
| 2026-04-28 02:59 | 9.13285 | -79.40126 | 2106 ft | 256 kts | 261° |
| 2026-04-28 02:59 | 9.12463 | -79.41721 | 2393 ft | 262 kts | 225° |
| 2026-04-28 03:00 | 9.10857 | -79.42641 | 2740 ft | 271 kts | 200° |
| 2026-04-28 03:00 | 9.09037 | -79.43198 | 3153 ft | 276 kts | 196° |
| 2026-04-28 03:00 | 9.07215 | -79.43843 | 3535 ft | 279 kts | 202° |
| 2026-04-28 03:00 | 9.05445 | -79.44660 | 3894 ft | 280 kts | 206° |
| 2026-04-28 03:01 | 9.03673 | -79.45498 | 4230 ft | 282 kts | 205° |
| 2026-04-28 03:01 | 9.01874 | -79.46277 | 4552 ft | 282 kts | 203° |
| 2026-04-28 03:01 | 9.00054 | -79.47034 | 4873 ft | 283 kts | 203° |
| 2026-04-28 03:01 | 8.98230 | -79.47807 | 5194 ft | 285 kts | 203° |
| 2026-04-28 03:02 | 8.96409 | -79.48597 | 5513 ft | 286 kts | 204° |
| 2026-04-28 03:02 | 8.94574 | -79.49393 | 5838 ft | 286 kts | 204° |
| 2026-04-28 03:02 | 8.92736 | -79.50187 | 6162 ft | 289 kts | 204° |
| 2026-04-28 03:02 | 8.90882 | -79.50984 | 6487 ft | 291 kts | 204° |
| 2026-04-28 03:03 | 8.89016 | -79.51788 | 6814 ft | 292 kts | 204° |
| 2026-04-28 03:03 | 8.87142 | -79.52592 | 7140 ft | 292 kts | 204° |
| 2026-04-28 03:03 | 8.85282 | -79.53391 | 7459 ft | 294 kts | 204° |
| 2026-04-28 03:03 | 8.83401 | -79.54223 | 7780 ft | 295 kts | 206° |
| 2026-04-28 03:04 | 8.81849 | -79.55547 | 7967 ft | 294 kts | 237° |
| 2026-04-28 03:04 | 8.81288 | -79.56816 | 8112 ft | 292 kts | 257° |
| 2026-04-28 03:04 | 8.81334 | -79.58833 | 8362 ft | 289 kts | 287° |
| 2026-04-28 03:04 | 8.82346 | -79.60526 | 8626 ft | 287 kts | 316° |
| 2026-04-28 03:05 | 8.84069 | -79.61503 | 8924 ft | 285 kts | 343° |